• Join FlightAware (Why Join?)
  • Login
  • US Flag 
12:31AM EST


 

Airport Tracker/Info


-or-


 

Live Flight TrackerFlight Track Log ✈ BAW2649 ✈ 20-Oct-2013 ✈ LATI / TIA - EGKK / LGW

Flight Track Log - Related Links

Times and Time Zones

All times are in EDT time to prevent confusion due to time zone crossing. See the BAW2649 flight status page for this flight to view local times or setup timezone preferences in your user account.

Time Position Orientation Groundspeed Altitude Reporting Facility
EDT Latitude Longitude Course Direction KTS MPH feet Rate Location/Type
04:14PM 41.4851 19.6169 312° West  Level Estimated
04:15PM 41.5554 19.5131 312° West  Level Estimated
04:16PM 41.6256 19.4090 312° West  Level Estimated
04:17PM 41.6958 19.3047 312° West  Level Estimated
04:18PM 41.7658 19.2002 312° West  Level Estimated
04:19PM 41.8357 19.0955 312° West  Level Estimated
04:20PM 41.9055 18.9905 312° West  Level Estimated
04:21PM 41.9753 18.8853 312° West  Level Estimated
04:22PM 42.0449 18.7798 312° West  Level Estimated
04:23PM 42.1144 18.6742 312° West  Level Estimated
04:24PM 42.1839 18.5683 312° West  Level Estimated
04:25PM 42.2532 18.4621 311° West  Level Estimated
04:26PM 42.3225 18.3558 311° West  Level Estimated
04:27PM 42.3916 18.2492 311° West  Level Estimated
04:28PM 42.4607 18.1423 311° West  Level Estimated
04:29PM 42.5296 18.0353 311° West  Level Estimated
04:30PM 42.5985 17.9279 311° West  Level Estimated
04:31PM 42.6672 17.8204 311° West  Level Estimated
04:32PM 42.7359 17.7126 311° West  Level Estimated
04:33PM 42.8044 17.6046 311° West  Level Estimated
04:34PM 42.8729 17.4963 311° West  Level Estimated
04:35PM 42.9372 17.3942 311° West  Level Estimated
04:36PM 43.0014 17.2919 311° West  Level Estimated
04:37PM 43.0656 17.1894 311° West  Level Estimated
04:38PM 43.1296 17.0866 311° West  Level Estimated
04:39PM 43.1936 16.9836 310° West  Level Estimated
04:40PM 43.2574 16.8804 310° West  Level Estimated
04:41PM 43.3212 16.7770 310° West  Level Estimated
04:42PM 43.3849 16.6734 310° West  Level Estimated
04:43PM 43.4485 16.5696 310° West  Level Estimated
04:44PM 43.5120 16.4655 310° West  Level Estimated
04:45PM 43.5754 16.3612 310° West  Level Estimated
04:46PM 43.6387 16.2567 310° West  Level Estimated
04:47PM 43.7019 16.1520 310° West  Level Estimated
04:48PM 43.7650 16.0471 310° West  Level Estimated
04:49PM 43.8280 15.9419 310° West  Level Estimated
04:50PM 43.8909 15.8365 310° West  Level Estimated
04:51PM 43.9538 15.7309 310° West  Level Estimated
04:52PM 44.0165 15.6251 310° West  Level Estimated
04:53PM 44.0791 15.5190 309° West  Level Estimated
04:54PM 44.1416 15.4128 309° West  Level Estimated
04:55PM 44.2041 15.3063 309° West  Level Estimated
04:56PM 44.2664 15.1995 309° West  Level Estimated
04:57PM 44.3286 15.0926 309° West  Level Estimated
04:58PM 44.3908 14.9854 309° West  Level Estimated
04:59PM 44.4528 14.8780 309° West  Level Estimated
05:00PM 44.5147 14.7704 309° West  Level Estimated
05:01PM 44.5765 14.6625 309° West  Level Estimated
05:02PM 44.6383 14.5544 309° West  Level Estimated
05:03PM 44.6934 14.4575 309° West  Level Estimated
05:04PM 44.7485 14.3604 309° West  Level Estimated
05:05PM 44.8035 14.2631 309° West  Level Estimated
05:06PM 44.8583 14.1657 308° West  Level Estimated
05:07PM 44.9132 14.0680 308° West  Level Estimated
05:08PM 44.9679 13.9702 308° West  Level Estimated
05:09PM 45.0225 13.8721 308° West  Level Estimated
05:10PM 45.0771 13.7739 308° West  Level Estimated
05:11PM 45.1316 13.6755 308° West  Level Estimated
05:12PM 45.1860 13.5769 308° West  Level Estimated
05:13PM 45.2403 13.4782 308° West  Level Estimated
05:14PM 45.2945 13.3792 308° West  Level Estimated
05:15PM 45.3486 13.2801 308° West  Level Estimated
05:16PM 45.4027 13.1807 308° West  Level Estimated
05:17PM 45.4566 13.0812 308° West  Level Estimated
05:18PM 45.5105 12.9815 308° West  Level Estimated
05:19PM 45.5643 12.8815 308° West  Level Estimated
05:20PM 45.6180 12.7814 308° West  Level Estimated
05:21PM 45.6716 12.6811 307° West  Level Estimated
05:22PM 45.7252 12.5806 307° West  Level Estimated
05:23PM 45.7786 12.4800 307° West  Level Estimated
05:24PM 45.8319 12.3791 307° West  Level Estimated
05:25PM 45.8852 12.2780 307° West  Level Estimated
05:26PM 45.9384 12.1768 307° West  Level Estimated
05:27PM 45.9915 12.0753 307° West  Level Estimated
05:28PM 46.0444 11.9736 307° West  Level Estimated
05:29PM 46.0973 11.8718 307° West  Level Estimated
05:30PM 46.1502 11.7697 307° West  Level Estimated
05:31PM 46.2029 11.6675 307° West  Level Estimated
05:32PM 46.2555 11.5651 307° West  Level Estimated
05:33PM 46.3080 11.4625 307° West  Level Estimated
05:34PM 46.3605 11.3596 306° West  Level Estimated
05:35PM 46.4128 11.2566 306° West  Level Estimated
05:36PM 46.4651 11.1534 306° West  Level Estimated
05:37PM 46.5173 11.0499 306° West  Level Estimated
05:38PM 46.5693 10.9463 306° West  Level Estimated
05:39PM 46.6213 10.8425 306° West  Level Estimated
05:40PM 46.6732 10.7385 306° West  Level Estimated
05:41PM 46.7250 10.6343 306° West  Level Estimated
05:42PM 46.7767 10.5299 306° West  Level Estimated
05:43PM 46.8283 10.4252 306° West  Level Estimated
05:44PM 46.8798 10.3204 306° West  Level Estimated
05:45PM 46.9312 10.2154 306° West  Level Estimated
05:46PM 46.9825 10.1102 306° West  Level Estimated
05:47PM 47.0337 10.0048 306° West  Level Estimated
05:48PM 47.0849 9.8991 305° West  Level Estimated
05:49PM 47.1359 9.7933 305° West  Level Estimated
05:50PM 47.1868 9.6873 305° West  Level Estimated
05:51PM 47.2377 9.5810 305° West  Level Estimated
05:52PM 47.2884 9.4746 305° West  Level Estimated
05:53PM 47.3390 9.3679 305° West  Level Estimated
05:54PM 47.3895 9.2611 305° West  Level Estimated
05:55PM 47.4400 9.1540 305° West  Level Estimated
05:56PM 47.4903 9.0468 305° West  Level Estimated
05:57PM 47.5405 8.9393 305° West  Level Estimated
05:58PM 47.5907 8.8316 305° West  Level Estimated
05:59PM 47.6407 8.7238 305° West  Level Estimated
06:00PM 47.6906 8.6157 304° West  Level Estimated
06:01PM 47.7405 8.5074 304° West  Level Estimated
06:02PM 47.7902 8.3989 304° West  Level Estimated
06:03PM 47.8398 8.2902 304° West  Level Estimated
06:04PM 47.8893 8.1813 304° West  Level Estimated
06:05PM 47.9387 8.0722 304° West  Level Estimated
06:06PM 47.9880 7.9628 304° West  Level Estimated
06:07PM 48.0373 7.8533 304° West  Level Estimated
06:08PM 48.0864 7.7435 304° West  Level Estimated
06:09PM 48.1354 7.6336 304° West  Level Estimated
06:10PM 48.1843 7.5234 304° West  Level Estimated
06:11PM 48.2331 7.4130 304° West  Level Estimated
06:12PM 48.2817 7.3024 304° West  Level Estimated
06:13PM 48.3303 7.1916 303° West  Level Estimated
06:14PM 48.3788 7.0806 303° West  Level Estimated
06:15PM 48.4272 6.9694 303° West  Level Estimated
06:16PM 48.4754 6.8580 303° West  Level Estimated
06:17PM 48.5236 6.7463 303° West  Level Estimated
06:18PM 48.5716 6.6345 303° West  Level Estimated
06:19PM 48.6195 6.5224 303° West  Level Estimated
06:20PM 48.6674 6.4101 303° West  Level Estimated
06:21PM 48.7151 6.2976 303° West  Level Estimated
06:22PM 48.7627 6.1849 303° West  Level Estimated
06:23PM 48.8102 6.0720 303° West  Level Estimated
06:24PM 48.8575 5.9588 303° West  Level Estimated
06:25PM 48.9048 5.8455 302° West  Level Estimated
06:26PM 48.9520 5.7319 302° West  Level Estimated
06:27PM 48.9990 5.6182 302° West  Level Estimated
06:28PM 49.0460 5.5042 302° West  Level Estimated
06:29PM 49.0928 5.3900 302° West  Level Estimated
06:30PM 49.1395 5.2755 302° West  Level Estimated
06:31PM 49.1861 5.1609 302° West  Level Estimated
06:32PM 49.2326 5.0460 302° West  Level Estimated
06:33PM 49.2789 4.9310 302° West  Level Estimated
06:34PM 49.3252 4.8157 302° West  Level Estimated
06:35PM 49.3713 4.7002 302° West  Level Estimated
06:36PM 49.4174 4.5844 301° West  Level Estimated
06:37PM 49.4633 4.4685 301° West  Level Estimated
06:38PM 49.5091 4.3524 301° West  Level Estimated
06:39PM 49.5548 4.2360 301° West  Level Estimated
06:40PM 49.6003 4.1194 301° West  Level Estimated
06:41PM 49.6458 4.0026 301° West  Level Estimated
06:42PM 49.6911 3.8856 301° West  Level Estimated
06:43PM 49.7363 3.7683 301° West  Level Estimated
06:44PM 49.7814 3.6508 301° West  Level Estimated
06:45PM 49.8264 3.5332 301° West  Level Estimated
06:46PM 49.8712 3.4153 301° West  Level Estimated
06:47PM 49.9160 3.2971 300° West  Level Estimated
06:48PM 49.9606 3.1788 300° West  Level Estimated
06:49PM 50.0051 3.0602 300° West  Level Estimated
06:49PM 49.3945 3.9189 300° West 1 1 32,000  Level FlightAware UK
06:50PM 50.0494 2.9415 300° West  Level Estimated
06:50PM 49.4295 3.8489 308° West 1 1 32,000  Level FlightAware UK
06:50PM 49.4572 3.7814 302° West 1 1 32,000  Level FlightAware UK
06:51PM 49.4896 3.6999 301° West 1 1 32,000  Level FlightAware UK
06:51PM 49.5224 3.6208 303° West 1 1 32,000  Level FlightAware UK
06:52PM 49.5543 3.5394 301° West 1 1 32,000  Level FlightAware UK
06:53PM 49.5859 3.4587 301° West 1 1 32,000  Level FlightAware UK
06:53PM 49.6136 3.3914 302° West 1 1 32,000  Level FlightAware UK
06:54PM 49.6406 3.3246 302° West 1 1 32,000  Level FlightAware UK
06:54PM 49.6678 3.2588 303° West 1 1 32,000  Level FlightAware UK
06:55PM 49.6995 3.1785 301° West 1 1 32,000  Level FlightAware UK
06:55PM 49.7312 3.0988 302° West 1 1 32,000  Level FlightAware UK
06:56PM 49.7576 3.0306 301° West 1 1 32,000  Level FlightAware UK
06:56PM 49.7898 2.9529 303° West 1 1 32,000  Level FlightAware UK
06:57PM 49.8173 2.8862 303° West 1 1 32,000  Level FlightAware UK
06:57PM 49.8226 2.8730 302° West 434 499 32,000  Level FlightAware UK
06:57PM 49.8491 2.8060 301° West 434 499 32,000  Level FlightAware UK
06:58PM 49.8755 2.7388 301° West 436 502 32,000  Level FlightAware UK
06:59PM 49.9069 2.6589 301° West 434 499 32,000  Level FlightAware UK
06:59PM 49.9384 2.5784 301° West 436 502 32,000  Level FlightAware UK
07:00PM 49.9700 2.4984 302° West 438 504 32,000  Level FlightAware UK
07:00PM 50.0014 2.4174 301° West 438 504 32,000  Level FlightAware UK
07:01PM 50.0277 2.3494 301° West 440 506 32,000  Level FlightAware UK
07:01PM 50.0564 2.2834 304° West 440 506 32,000  Level FlightAware UK
07:02PM 50.0923 2.2060 306° West 438 504 32,000  Level FlightAware UK
07:02PM 50.1213 2.1402 305° West 440 506 32,000  Level FlightAware UK
07:03PM 50.1506 2.0746 305° West 440 506 32,000  Level FlightAware UK
07:03PM 50.1801 2.0093 305° West 438 504 32,000  Level FlightAware UK
07:04PM 50.2153 1.9316 305° West 440 506 32,000  Level FlightAware UK
07:05PM 50.2449 1.8666 305° West 438 504 32,000  Level FlightAware UK
07:05PM 50.2793 1.7896 305° West 438 504 32,000  Level FlightAware UK
07:06PM 50.3084 1.7246 305° West 438 504 32,000 -300 Level FlightAware UK
07:06PM 50.3377 1.6592 305° West 442 509 31,700 -840 Descending FlightAware UK
07:07PM 50.3668 1.5938 305° West 442 509 31,200 -1,020 Descending FlightAware UK
07:07PM 50.3962 1.5281 305° West 446 513 30,700 -960 Descending FlightAware UK
07:08PM 50.4318 1.4480 305° West 446 513 30,200 -960 Descending FlightAware UK
07:08PM 50.4622 1.3794 305° West 450 518 29,700 -1,140 Descending FlightAware UK
07:09PM 50.4985 1.2969 305° West 450 518 29,000 -2,520 Descending FlightAware UK
07:09PM 50.5347 1.2143 305° West 446 513 26,700 -3,480 Descending FlightAware UK
07:10PM 50.5655 1.1450 305° West 436 502 25,200 -2,820 Descending FlightAware UK
07:11PM 50.6011 1.0640 305° West 424 488 23,600 -2,700 Descending FlightAware UK
07:11PM 50.6357 0.9848 305° West 418 481 22,000 -2,820 Descending FlightAware UK
07:12PM 50.6694 0.9062 304° West 412 474 20,300 -2,820 Descending FlightAware UK
07:12PM 50.6973 0.8419 304° West 396 456 19,000 -2,460 Descending FlightAware UK
07:13PM 50.7251 0.7779 304° West 398 458 17,800 -2,700 Descending FlightAware UK
07:13PM 50.7533 0.7116 304° West 398 458 16,300 -3,120 Descending FlightAware UK
07:13PM 50.7668 0.6891 314° West 396 456 15,700 -3,180 Descending FlightAware UK
07:14PM 50.7842 0.6709 326° Northwest 394 453 15,100 -2,460 Descending FlightAware UK
07:14PM 50.8309 0.6330 333° Northwest 384 442 14,000 -2,760 Descending FlightAware UK
07:15PM 50.8852 0.5894 333° Northwest 378 435 12,100 -3,180 Descending FlightAware UK
07:15PM 50.9392 0.5441 332° Northwest 378 435 10,200 -2,940 Descending FlightAware UK
07:16PM 50.9665 0.5208 332° Northwest 368 423 9,500 -2,040 Descending FlightAware UK
07:16PM 50.9927 0.4987 332° Northwest 354 407 9,000 -1,680 Descending FlightAware UK
07:16PM 51.0177 0.4779 332° Northwest 336 387 8,500 -1,680 Descending FlightAware UK
07:16PM 51.0418 0.4581 333° Northwest 322 371 8,000 -1,500 Descending FlightAware UK
07:17PM 51.0645 0.4394 333° Northwest 310 357 7,600 -840 Descending FlightAware UK
07:17PM 51.0861 0.4221 333° Northwest 292 336 7,500 -540 Descending FlightAware UK
07:17PM 51.1069 0.4059 334° Northwest 272 313 7,300 -720 Descending FlightAware UK
07:18PM 51.1261 0.3911 334° Northwest 256 295 7,100 -540 Descending FlightAware UK
07:18PM 51.1444 0.3771 334° Northwest 248 285 7,000 -540 Descending FlightAware UK
07:18PM 51.1502 0.3726 334° Northwest 246 283 6,900 -540 Descending FlightAware UK
07:18PM 51.1540 0.3640 305° West 246 283 6,900  Level FlightAware UK
07:18PM 51.1569 0.3553 298° West 246 283 6,900 -540 Level FlightAware UK
07:18PM 51.1592 0.3468 293° West 244 281 6,800 -1,020 Descending FlightAware UK
07:19PM 51.1667 0.3204 294° West 244 281 6,500 -1,200 Descending FlightAware UK
07:19PM 51.1734 0.2944 293° West 244 281 6,100 -1,200 Descending FlightAware UK
07:19PM 51.1801 0.2685 292° West 240 276 5,800 -1,020 Descending FlightAware UK
07:20PM 51.1870 0.2425 293° West 240 276 5,500 -1,200 Descending FlightAware UK
07:20PM 51.1936 0.2163 292° West 236 272 5,100 -1,200 Descending FlightAware UK
07:20PM 51.1973 0.1993 289° West 234 269 4,900 -1,020 Descending FlightAware UK
07:20PM 51.1965 0.1907 262° West 232 267 4,800 -1,020 Descending FlightAware UK
07:20PM 51.1958 0.1826 262° West 230 265 4,700 -780 Descending FlightAware UK
07:21PM 51.1944 0.1575 265° West 218 251 4,500 -720 Descending FlightAware UK
07:21PM 51.1929 0.1348 264° West 206 237 4,300 -840 Descending FlightAware UK
07:21PM 51.1905 0.1137 260° West 202 232 4,000 -1,200 Descending FlightAware UK
07:21PM 51.1875 0.0923 257° West 202 232 3,600 -1,200 Descending FlightAware UK
07:22PM 51.1843 0.0715 256° West 198 228 3,300 -840 Descending FlightAware UK
07:22PM 51.1813 0.0512 257° West 188 216 3,100 -720 Descending FlightAware UK
07:22PM 51.1787 0.0332 257° West 176 203 2,900 -720 Descending FlightAware UK
07:23PM 51.1763 0.0160 258° West 170 196 2,700 -720 Descending FlightAware UK
07:23PM 51.1739 -0.0011 257° West 170 196 2,500 -720 Descending FlightAware UK
07:23PM 51.1716 -0.0185 258° West 166 191 2,300 -840 Descending FlightAware UK
07:24PM 51.1693 -0.0361 258° West 168 193 2,000 -840 Descending FlightAware UK
07:24PM 51.1670 -0.0539 258° West 164 189 1,800 -720 Descending FlightAware UK
07:24PM 51.1649 -0.0691 258° West 142 163 1,600 -720 Descending FlightAware UK
07:24PM 51.1626 -0.0855 257° West 150 173 1,400 -720 Descending FlightAware UK
07:25PM 51.1604 -0.1013 258° West 148 170 1,200 -720 Descending FlightAware UK
07:25PM 51.1581 -0.1184 258° West 146 168 1,000 -720 Descending FlightAware UK
07:25PM 51.1556 -0.1354 257° West 148 170 800 -720 Descending FlightAware UK
07:26PM 51.1531 -0.1531 257° West 144 166 600 -840 Descending FlightAware UK
07:26PM 51.1507 -0.1709 258° West 146 168 300 -1,020 Descending FlightAware UK
07:28PM 51.1481 -0.1903 258° West  Level Estimated
07:35PM 51.1481 -0.1903 163° South  Level Estimated
07:36PM 51.1481 -0.1903 163° South  Level Estimated